createdAt,value
2023-05-19T00:00:34.564Z,57.73
2023-05-19T00:01:34.228Z,60.15
2023-05-19T00:02:34.356Z,57.52
2023-05-19T00:03:34.304Z,60.86
2023-05-19T00:04:34.213Z,58.39
2023-05-19T00:05:34.230Z,55.99
2023-05-19T00:06:34.238Z,59.24
2023-05-19T00:07:34.192Z,60.31
2023-05-19T00:08:34.332Z,57.46
2023-05-19T00:09:34.162Z,62.84
2023-05-19T00:10:34.336Z,62.71
2023-05-19T00:11:34.151Z,58.03
2023-05-19T00:12:34.164Z,61.79
2023-05-19T00:13:34.130Z,60.22
2023-05-19T00:14:34.133Z,57.37
2023-05-19T00:15:34.184Z,57.45
2023-05-19T00:16:34.254Z,59.53
2023-05-19T00:17:34.158Z,57.88
2023-05-19T00:18:34.094Z,58.00
2023-05-19T00:19:34.079Z,53.90
2023-05-19T00:20:34.425Z,59.22
2023-05-19T00:21:34.060Z,61.01
2023-05-19T00:22:34.077Z,57.15
2023-05-19T00:23:34.080Z,58.30
2023-05-19T00:24:34.071Z,56.91
2023-05-19T00:25:34.040Z,58.70
2023-05-19T00:26:34.033Z,56.44
2023-05-19T00:27:34.012Z,58.98
2023-05-19T00:28:34.018Z,60.27
2023-05-19T00:29:34.057Z,57.81
2023-05-19T00:30:34.167Z,62.40
2023-05-19T00:31:34.356Z,58.49
2023-05-19T00:32:34.034Z,59.01
2023-05-19T00:33:34.008Z,58.24
2023-05-19T00:34:33.973Z,60.75
2023-05-19T00:35:34.258Z,61.62
2023-05-19T00:36:33.965Z,59.57
2023-05-19T00:37:33.944Z,60.92
2023-05-19T00:38:33.948Z,63.30
2023-05-19T00:39:33.932Z,63.04
2023-05-19T00:40:34.147Z,60.55
2023-05-19T00:41:33.920Z,61.96
2023-05-19T00:42:33.926Z,61.05
2023-05-19T00:43:33.900Z,57.38
2023-05-19T00:44:33.885Z,61.93
2023-05-19T00:45:33.869Z,60.66
2023-05-19T00:46:33.941Z,60.58
2023-05-19T00:47:33.936Z,55.72
2023-05-19T00:48:33.876Z,62.26
2023-05-19T00:49:33.837Z,61.07
2023-05-19T00:50:34.060Z,64.08
2023-05-19T00:51:33.836Z,60.30
2023-05-19T00:52:33.852Z,59.93
2023-05-19T00:53:33.811Z,59.21
2023-05-19T00:54:33.825Z,60.93
2023-05-19T00:55:33.803Z,60.70
2023-05-19T00:56:33.865Z,64.91
2023-05-19T00:57:33.779Z,61.22
2023-05-19T00:58:33.806Z,59.48
2023-05-19T00:59:33.764Z,60.82
2023-05-19T01:00:34.010Z,61.09
2023-05-19T01:01:33.852Z,63.91
2023-05-19T01:02:33.811Z,56.92
2023-05-19T01:03:33.793Z,63.02
2023-05-19T01:04:33.756Z,63.59
2023-05-19T01:05:33.712Z,61.81
2023-05-19T01:06:33.712Z,60.16
2023-05-19T01:07:33.689Z,60.11
2023-05-19T01:08:33.706Z,62.69
2023-05-19T01:09:33.724Z,64.54
2023-05-19T01:10:33.861Z,65.20
2023-05-19T01:11:33.658Z,57.99
2023-05-19T01:12:33.656Z,54.46
2023-05-19T01:13:33.651Z,59.87
2023-05-19T01:14:33.648Z,65.60
2023-05-19T01:15:33.694Z,62.69
2023-05-19T01:16:33.701Z,61.79
2023-05-19T01:17:33.660Z,56.27
2023-05-19T01:18:33.621Z,64.14
2023-05-19T01:19:33.591Z,58.54
2023-05-19T01:20:33.833Z,62.00
2023-05-19T01:21:33.611Z,63.06
2023-05-19T01:22:33.582Z,63.39
2023-05-19T01:23:33.566Z,64.15
2023-05-19T01:24:33.573Z,59.10
2023-05-19T01:25:33.536Z,65.23
2023-05-19T01:26:33.597Z,64.79
2023-05-19T01:27:33.532Z,57.53
2023-05-19T01:28:33.527Z,62.84
2023-05-19T01:29:33.525Z,64.26
2023-05-19T01:30:33.702Z,60.38
2023-05-19T01:31:33.554Z,65.25
2023-05-19T01:32:34.249Z,62.75
2023-05-19T01:33:33.492Z,60.56
2023-05-19T01:34:33.500Z,62.28
2023-05-19T01:35:33.482Z,64.32
2023-05-19T01:36:33.476Z,65.32
2023-05-19T01:37:33.455Z,59.70
2023-05-19T01:38:33.509Z,59.12
2023-05-19T01:39:33.431Z,61.72
2023-05-19T01:40:33.706Z,64.41
2023-05-19T01:41:33.413Z,64.28
2023-05-19T01:42:33.525Z,62.90
2023-05-19T01:43:33.429Z,67.71
2023-05-19T01:44:33.432Z,61.57
2023-05-19T01:45:33.503Z,63.80
2023-05-19T01:46:33.423Z,60.52
2023-05-19T01:47:33.400Z,66.38
2023-05-19T01:48:33.385Z,66.50
2023-05-19T01:49:33.366Z,59.75
2023-05-19T01:50:33.861Z,63.62
2023-05-19T01:51:33.409Z,62.12
2023-05-19T01:52:33.435Z,62.74
2023-05-19T01:53:33.323Z,66.88
2023-05-19T01:54:33.347Z,65.97
2023-05-19T01:55:33.320Z,66.38
2023-05-19T01:56:33.347Z,64.51
2023-05-19T01:57:33.295Z,62.11
2023-05-19T01:58:33.295Z,62.20
2023-05-19T01:59:33.284Z,66.84
2023-05-19T02:00:33.549Z,66.80
2023-05-19T02:01:33.295Z,63.61
2023-05-19T02:02:33.309Z,64.37
2023-05-19T02:03:33.272Z,61.32
2023-05-19T02:04:33.320Z,59.51
2023-05-19T02:05:33.283Z,63.06
2023-05-19T02:06:33.236Z,62.29
2023-05-19T02:07:33.211Z,62.85
2023-05-19T02:08:33.242Z,64.96
2023-05-19T02:09:33.196Z,61.88
2023-05-19T02:10:33.360Z,63.55
2023-05-19T02:11:33.170Z,64.00
2023-05-19T02:12:33.179Z,64.60
2023-05-19T02:13:33.186Z,67.02
2023-05-19T02:14:33.174Z,62.88
2023-05-19T02:15:33.165Z,64.07
2023-05-19T02:16:33.135Z,67.30
2023-05-19T02:17:33.263Z,64.15
2023-05-19T02:18:33.141Z,65.49
2023-05-19T02:19:33.157Z,66.71
2023-05-19T02:20:33.492Z,62.97
2023-05-19T02:21:33.107Z,64.12
2023-05-19T02:22:33.088Z,62.81
2023-05-19T02:23:33.093Z,63.54
2023-05-19T02:24:33.116Z,65.59
2023-05-19T02:25:33.075Z,62.85
2023-05-19T02:26:33.058Z,65.04
2023-05-19T02:27:33.070Z,64.79
2023-05-19T02:28:33.033Z,65.87
2023-05-19T02:29:33.039Z,65.16
2023-05-19T02:30:33.231Z,61.75
2023-05-19T02:31:33.149Z,62.03
2023-05-19T02:32:33.114Z,63.43
2023-05-19T02:33:33.003Z,68.67
2023-05-19T02:34:33.001Z,65.91
2023-05-19T02:35:32.989Z,64.16
2023-05-19T02:36:32.985Z,65.91
2023-05-19T02:37:32.965Z,64.31
2023-05-19T02:38:32.991Z,63.62
2023-05-19T02:39:32.951Z,65.19
2023-05-19T02:40:33.194Z,66.92
2023-05-19T02:41:32.954Z,65.13
2023-05-19T02:42:32.975Z,64.85
2023-05-19T02:43:32.920Z,65.54
2023-05-19T02:44:32.903Z,67.06
2023-05-19T02:45:32.901Z,64.31
2023-05-19T02:46:32.960Z,65.91
2023-05-19T02:47:34.676Z,65.95
2023-05-19T02:48:32.879Z,67.68
2023-05-19T02:49:32.902Z,66.28
2023-05-19T02:50:33.064Z,62.83
2023-05-19T02:51:32.848Z,65.48
2023-05-19T02:52:32.845Z,64.73
2023-05-19T02:53:32.887Z,64.10
2023-05-19T02:54:32.819Z,68.01
2023-05-19T02:55:32.819Z,65.94
2023-05-19T02:56:32.868Z,65.55
2023-05-19T02:57:32.799Z,64.97
2023-05-19T02:58:32.777Z,69.05
2023-05-19T02:59:32.769Z,68.02
2023-05-19T03:00:32.986Z,68.89
2023-05-19T03:01:32.791Z,65.85
2023-05-19T03:02:32.800Z,65.44
2023-05-19T03:03:32.797Z,67.22
2023-05-19T03:04:32.766Z,65.49
2023-05-19T03:05:32.726Z,61.91
2023-05-19T03:06:32.708Z,65.13
2023-05-19T03:07:32.735Z,64.91
2023-05-19T03:08:32.736Z,66.10
2023-05-19T03:09:32.698Z,66.55
2023-05-19T03:10:32.837Z,68.16
2023-05-19T03:11:32.682Z,66.24
2023-05-19T03:12:32.655Z,64.25
2023-05-19T03:13:32.667Z,65.54
2023-05-19T03:14:32.683Z,67.24
2023-05-19T03:15:32.623Z,68.26
2023-05-19T03:16:32.646Z,68.24
2023-05-19T03:17:32.699Z,65.03
2023-05-19T03:18:32.594Z,66.34
2023-05-19T03:19:32.605Z,68.70
2023-05-19T03:20:32.969Z,69.00
2023-05-19T03:21:32.599Z,66.93
2023-05-19T03:22:32.565Z,65.55
2023-05-19T03:23:32.565Z,64.61
2023-05-19T03:24:32.556Z,65.41
2023-05-19T03:25:32.545Z,64.78
2023-05-19T03:26:32.561Z,66.46
2023-05-19T03:27:32.532Z,66.15
2023-05-19T03:28:32.511Z,68.04
2023-05-19T03:29:32.521Z,66.67
2023-05-19T03:30:32.806Z,66.69
2023-05-19T03:31:32.508Z,67.03
2023-05-19T03:32:32.579Z,68.52
2023-05-19T03:33:32.515Z,68.43
2023-05-19T03:34:32.476Z,66.78
2023-05-19T03:35:32.471Z,64.28
2023-05-19T03:36:32.454Z,67.46
2023-05-19T03:37:32.459Z,67.33
2023-05-19T03:38:32.483Z,68.34
2023-05-19T03:39:32.436Z,70.02
2023-05-19T03:40:32.616Z,65.49
2023-05-19T03:41:32.414Z,66.37
2023-05-19T03:42:32.414Z,67.87
2023-05-19T03:43:32.402Z,68.58
2023-05-19T03:44:32.453Z,68.19
2023-05-19T03:45:32.405Z,68.89
2023-05-19T03:46:32.371Z,65.33
2023-05-19T03:47:32.497Z,65.67
2023-05-19T03:48:32.358Z,68.27
2023-05-19T03:49:32.359Z,66.15
2023-05-19T03:50:32.659Z,63.35
2023-05-19T03:51:32.374Z,65.65
2023-05-19T03:52:32.332Z,67.19
2023-05-19T03:53:32.347Z,69.23
2023-05-19T03:54:32.308Z,65.02
2023-05-19T03:55:32.359Z,62.30
2023-05-19T03:56:32.329Z,63.51
2023-05-19T03:57:32.279Z,67.78
2023-05-19T03:58:32.273Z,67.02
2023-05-19T03:59:32.275Z,67.38
2023-05-19T04:00:32.555Z,67.34
2023-05-19T04:01:32.281Z,68.39
2023-05-19T04:02:32.330Z,66.99
2023-05-19T04:03:32.337Z,62.70
2023-05-19T04:04:32.266Z,64.84
2023-05-19T04:05:32.271Z,64.02
2023-05-19T04:06:32.220Z,63.91
2023-05-19T04:07:32.271Z,66.70
2023-05-19T04:08:32.197Z,68.77
2023-05-19T04:09:32.214Z,68.46
2023-05-19T04:10:32.330Z,67.06
2023-05-19T04:11:32.185Z,67.53
2023-05-19T04:12:32.158Z,67.43
2023-05-19T04:13:32.177Z,67.52
2023-05-19T04:14:32.142Z,66.93
2023-05-19T04:15:32.165Z,65.99
2023-05-19T04:16:32.181Z,67.99
2023-05-19T04:17:32.165Z,68.05
2023-05-19T04:18:32.153Z,69.24
2023-05-19T04:19:32.215Z,67.44
2023-05-19T04:20:32.183Z,66.22
2023-05-19T04:21:32.093Z,65.70
2023-05-19T04:22:32.105Z,68.71
2023-05-19T04:23:32.116Z,65.39
2023-05-19T04:24:32.055Z,66.13
2023-05-19T04:25:32.078Z,66.22
2023-05-19T04:26:32.049Z,67.27
2023-05-19T04:27:32.117Z,69.10
2023-05-19T04:28:32.075Z,67.18
2023-05-19T04:29:32.034Z,68.51
2023-05-19T04:30:32.174Z,69.52
2023-05-19T04:31:32.052Z,69.46
2023-05-19T04:32:32.015Z,67.96
2023-05-19T04:33:31.995Z,67.55
2023-05-19T04:34:31.995Z,67.20
2023-05-19T04:35:32.028Z,66.36
2023-05-19T04:36:31.954Z,65.74
2023-05-19T04:37:31.950Z,66.37
2023-05-19T04:38:31.932Z,66.02
2023-05-19T04:39:31.938Z,68.64
2023-05-19T04:40:32.406Z,66.83
2023-05-19T04:41:31.925Z,68.28
2023-05-19T04:42:31.914Z,67.33
2023-05-19T04:43:31.935Z,67.43
2023-05-19T04:44:31.898Z,70.08
2023-05-19T04:45:31.886Z,69.60
2023-05-19T04:46:31.957Z,69.77
2023-05-19T04:47:31.958Z,67.95
2023-05-19T04:48:31.840Z,66.52
2023-05-19T04:49:31.860Z,66.41
2023-05-19T04:50:31.952Z,68.16
2023-05-19T04:51:31.844Z,65.93
2023-05-19T04:52:31.944Z,65.52
2023-05-19T04:53:31.878Z,65.21
2023-05-19T04:54:31.816Z,63.85
2023-05-19T04:55:31.810Z,65.77
2023-05-19T04:56:31.791Z,63.00
2023-05-19T04:57:31.798Z,64.51
2023-05-19T04:58:31.857Z,65.79
2023-05-19T04:59:31.774Z,63.98
2023-05-19T05:00:31.886Z,63.48
2023-05-19T05:01:31.798Z,66.27
2023-05-19T05:02:31.749Z,66.76
2023-05-19T05:03:31.782Z,63.57
2023-05-19T05:04:31.730Z,68.52
2023-05-19T05:05:31.732Z,66.90
2023-05-19T05:06:31.764Z,64.14
2023-05-19T05:07:32.640Z,63.34
2023-05-19T05:08:31.688Z,65.93
2023-05-19T05:09:31.689Z,66.56
2023-05-19T05:10:31.929Z,63.44
2023-05-19T05:11:31.703Z,64.14
2023-05-19T05:12:31.658Z,64.24
2023-05-19T05:13:31.654Z,66.00
2023-05-19T05:14:31.633Z,64.02
2023-05-19T05:15:31.645Z,66.48
2023-05-19T05:16:31.642Z,64.12
2023-05-19T05:17:31.711Z,64.58
2023-05-19T05:18:31.601Z,62.09
2023-05-19T05:19:31.723Z,63.41
2023-05-19T05:20:31.876Z,68.19
2023-05-19T05:21:31.864Z,65.35
2023-05-19T05:22:31.584Z,65.78
2023-05-19T05:23:31.561Z,63.86
2023-05-19T05:24:31.555Z,61.76
2023-05-19T05:25:31.752Z,64.97
2023-05-19T05:26:31.604Z,64.81
2023-05-19T05:27:31.546Z,60.15
2023-05-19T05:28:31.571Z,65.06
2023-05-19T05:29:31.520Z,62.64
2023-05-19T05:30:31.511Z,60.76
2023-05-19T05:31:31.506Z,64.27
2023-05-19T05:32:31.509Z,63.62
2023-05-19T05:33:31.542Z,60.02
2023-05-19T05:34:31.485Z,63.08
2023-05-19T05:35:31.625Z,60.19
2023-05-19T05:36:31.475Z,66.67
2023-05-19T05:37:31.466Z,63.97
2023-05-19T05:38:31.472Z,62.54
2023-05-19T05:39:31.491Z,62.64
2023-05-19T05:40:31.451Z,60.24
2023-05-19T05:41:31.436Z,64.15
2023-05-19T05:42:31.422Z,62.88
2023-05-19T05:43:31.439Z,63.24
2023-05-19T05:44:31.395Z,66.79
2023-05-19T05:45:31.639Z,60.86
2023-05-19T05:46:31.419Z,66.14
2023-05-19T05:47:31.466Z,63.01
2023-05-19T05:48:31.383Z,64.05
2023-05-19T05:49:31.389Z,64.06
2023-05-19T05:50:31.392Z,62.04
2023-05-19T05:51:31.381Z,65.07
2023-05-19T05:52:31.343Z,61.22
2023-05-19T05:53:31.345Z,65.31
2023-05-19T05:54:31.338Z,65.91
2023-05-19T05:55:31.521Z,61.89
2023-05-19T05:56:31.368Z,62.29
2023-05-19T05:57:31.330Z,65.00
2023-05-19T05:58:31.305Z,60.38
2023-05-19T05:59:31.307Z,61.67
2023-05-19T06:00:31.481Z,64.04
2023-05-19T06:01:32.170Z,65.00
2023-05-19T06:02:31.352Z,63.19
2023-05-19T06:03:31.273Z,59.52
2023-05-19T06:04:31.250Z,61.68
2023-05-19T06:05:31.392Z,64.67
2023-05-19T06:06:31.240Z,64.78
2023-05-19T06:07:31.248Z,62.64
2023-05-19T06:08:31.331Z,63.95
2023-05-19T06:09:31.228Z,62.36
2023-05-19T06:10:31.424Z,65.15
2023-05-19T06:11:31.203Z,63.30
2023-05-19T06:12:31.222Z,65.37
2023-05-19T06:13:31.191Z,65.48
2023-05-19T06:14:31.188Z,64.99
2023-05-19T06:15:31.310Z,62.28
2023-05-19T06:16:31.185Z,61.82
2023-05-19T06:17:31.215Z,65.16
2023-05-19T06:18:31.140Z,64.34
2023-05-19T06:19:31.165Z,63.68
2023-05-19T06:20:31.285Z,63.03
2023-05-19T06:21:31.134Z,62.30
2023-05-19T06:22:31.130Z,65.33
2023-05-19T06:23:31.125Z,58.19
2023-05-19T06:24:31.090Z,60.20
2023-05-19T06:25:31.232Z,62.83
2023-05-19T06:26:31.637Z,65.43
2023-05-19T06:27:33.226Z,61.76
2023-05-19T06:28:31.086Z,64.75
2023-05-19T06:29:31.047Z,61.54
2023-05-19T06:30:31.106Z,61.17
2023-05-19T06:31:31.239Z,59.01
2023-05-19T06:32:31.122Z,61.36
2023-05-19T06:33:31.013Z,62.36
2023-05-19T06:34:31.016Z,64.15
2023-05-19T06:35:31.217Z,63.54
2023-05-19T06:36:30.991Z,58.62
2023-05-19T06:37:31.249Z,62.42
2023-05-19T06:38:31.023Z,60.84
2023-05-19T06:39:30.977Z,62.03
2023-05-19T06:40:32.217Z,64.04
2023-05-19T06:41:30.927Z,64.14
2023-05-19T06:42:30.932Z,63.04
2023-05-19T06:43:31.019Z,65.68
2023-05-19T06:44:30.968Z,63.05
2023-05-19T06:45:30.899Z,61.85
2023-05-19T06:46:30.952Z,62.76
2023-05-19T06:47:30.899Z,61.74
2023-05-19T06:48:30.996Z,63.19
2023-05-19T06:49:30.940Z,63.01
2023-05-19T06:50:31.100Z,61.89
2023-05-19T06:51:30.873Z,62.45
2023-05-19T06:52:31.863Z,60.17
2023-05-19T06:53:30.860Z,64.26
2023-05-19T06:54:31.194Z,61.37
2023-05-19T06:55:31.034Z,65.74
2023-05-19T06:56:30.851Z,63.58
2023-05-19T06:57:30.911Z,60.65
2023-05-19T06:58:30.810Z,64.99
2023-05-19T06:59:31.032Z,65.08
2023-05-19T07:00:30.916Z,63.58
2023-05-19T07:01:30.802Z,64.23
2023-05-19T07:02:30.951Z,64.50
2023-05-19T07:03:31.103Z,64.71
2023-05-19T07:04:30.761Z,61.39
2023-05-19T07:05:30.751Z,62.75
2023-05-19T07:06:30.767Z,63.58
2023-05-19T07:07:30.724Z,62.77
2023-05-19T07:08:30.734Z,63.82
2023-05-19T07:09:30.891Z,62.15
2023-05-19T07:10:30.890Z,63.43
2023-05-19T07:11:30.685Z,61.62
2023-05-19T07:12:30.725Z,63.28
2023-05-19T07:13:30.828Z,64.80
2023-05-19T07:14:30.688Z,63.92
2023-05-19T07:15:30.646Z,60.14
2023-05-19T07:16:30.680Z,61.87
2023-05-19T07:17:30.639Z,59.72
2023-05-19T07:18:30.691Z,63.35
2023-05-19T07:19:30.771Z,62.74
2023-05-19T07:20:30.861Z,63.03
2023-05-19T07:21:30.592Z,63.14
2023-05-19T07:22:30.666Z,63.69
2023-05-19T07:23:30.591Z,62.38
2023-05-19T07:24:30.610Z,63.88
2023-05-19T07:25:30.567Z,63.63
2023-05-19T07:26:30.566Z,62.99
2023-05-19T07:27:30.624Z,62.99
2023-05-19T07:28:30.577Z,62.08
2023-05-19T07:29:30.554Z,61.84
2023-05-19T07:30:30.805Z,63.33
2023-05-19T07:31:30.536Z,63.99
2023-05-19T07:32:30.549Z,64.22
2023-05-19T07:33:30.504Z,63.92
2023-05-19T07:34:30.543Z,64.78
2023-05-19T07:35:30.494Z,64.38
2023-05-19T07:36:30.489Z,63.51
2023-05-19T07:37:30.500Z,64.20
2023-05-19T07:38:30.498Z,66.12
2023-05-19T07:39:30.462Z,65.58
2023-05-19T07:40:30.588Z,62.45
2023-05-19T07:41:30.427Z,63.68
2023-05-19T07:42:30.437Z,62.55
2023-05-19T07:43:30.420Z,64.26
2023-05-19T07:44:30.430Z,62.83
2023-05-19T07:45:30.406Z,65.07
2023-05-19T07:46:30.509Z,62.67
2023-05-19T07:47:30.401Z,62.86
2023-05-19T07:48:30.456Z,61.80
2023-05-19T07:49:30.360Z,61.12
2023-05-19T07:50:30.491Z,62.73
2023-05-19T07:51:30.371Z,64.64
2023-05-19T07:52:30.387Z,61.75
2023-05-19T07:53:30.477Z,61.76
2023-05-19T07:54:30.333Z,59.76
2023-05-19T07:55:30.326Z,62.19
2023-05-19T07:56:30.903Z,65.25
2023-05-19T07:57:30.319Z,64.43
2023-05-19T07:58:30.344Z,63.29
2023-05-19T07:59:30.296Z,63.10
2023-05-19T08:00:30.756Z,63.86
2023-05-19T08:01:30.297Z,63.48
2023-05-19T08:02:30.367Z,64.49
2023-05-19T08:03:31.173Z,63.87
2023-05-19T08:04:30.289Z,66.43
2023-05-19T08:05:30.243Z,67.60
2023-05-19T08:06:30.231Z,67.21
2023-05-19T08:07:30.230Z,65.39
2023-05-19T08:08:30.247Z,64.54
2023-05-19T08:09:30.186Z,65.98
2023-05-19T08:10:30.320Z,66.32
2023-05-19T08:11:30.180Z,66.09
2023-05-19T08:12:30.224Z,66.65
2023-05-19T08:13:30.184Z,64.94
2023-05-19T08:14:30.417Z,63.63
2023-05-19T08:15:30.167Z,65.86
2023-05-19T08:16:30.517Z,67.30
2023-05-19T08:17:30.191Z,64.81
2023-05-19T08:18:30.158Z,63.64
2023-05-19T08:19:30.251Z,64.53
2023-05-19T08:20:30.307Z,64.08
2023-05-19T08:21:31.623Z,60.55
2023-05-19T08:22:30.095Z,63.98
2023-05-19T08:23:30.086Z,63.44
2023-05-19T08:24:30.084Z,66.16
2023-05-19T08:25:30.139Z,66.87
2023-05-19T08:26:30.608Z,64.43
2023-05-19T08:27:30.746Z,66.57
2023-05-19T08:28:30.052Z,67.91
2023-05-19T08:29:30.037Z,65.97
2023-05-19T08:30:30.034Z,65.19
2023-05-19T08:31:30.081Z,66.82
2023-05-19T08:32:30.079Z,67.78
2023-05-19T08:33:30.043Z,68.34
2023-05-19T08:34:30.010Z,65.71
2023-05-19T08:35:30.938Z,66.09
2023-05-19T08:36:30.004Z,66.72
2023-05-19T08:37:31.418Z,65.70
2023-05-19T08:38:30.000Z,66.45
2023-05-19T08:39:30.873Z,65.99
2023-05-19T08:40:30.058Z,64.53
2023-05-19T08:41:29.934Z,66.17
2023-05-19T08:42:29.995Z,62.53
2023-05-19T08:43:31.242Z,65.54
2023-05-19T08:44:29.944Z,67.93
2023-05-19T08:45:30.092Z,62.47
2023-05-19T08:46:30.866Z,65.82
2023-05-19T08:47:31.119Z,64.10
2023-05-19T08:48:30.055Z,65.59
2023-05-19T08:49:29.913Z,66.28
2023-05-19T08:50:29.903Z,66.21
2023-05-19T08:51:29.860Z,62.75
2023-05-19T08:52:29.874Z,63.93
2023-05-19T08:53:33.051Z,64.98
2023-05-19T08:54:29.859Z,65.81
2023-05-19T08:55:29.913Z,65.54
2023-05-19T08:56:29.865Z,66.57
2023-05-19T08:57:29.804Z,65.22
2023-05-19T08:58:29.841Z,64.62
2023-05-19T08:59:29.793Z,65.09
2023-05-19T09:00:29.822Z,63.41
2023-05-19T09:01:29.847Z,68.28
2023-05-19T09:02:29.826Z,67.08
2023-05-19T09:03:29.812Z,67.77
2023-05-19T09:04:30.249Z,66.06
2023-05-19T09:05:29.768Z,64.58
2023-05-19T09:06:29.789Z,65.93
2023-05-19T09:07:29.720Z,66.34
2023-05-19T09:08:29.863Z,65.98
2023-05-19T09:09:29.702Z,65.25
2023-05-19T09:10:29.718Z,65.03
2023-05-19T09:11:29.740Z,67.54
2023-05-19T09:12:29.699Z,66.79
2023-05-19T09:13:29.684Z,65.78
2023-05-19T09:14:29.767Z,66.58
2023-05-19T09:15:29.677Z,66.91
2023-05-19T09:16:30.326Z,65.73
2023-05-19T09:17:29.696Z,64.37
2023-05-19T09:18:29.634Z,64.15
2023-05-19T09:19:29.757Z,64.86
2023-05-19T09:20:29.668Z,65.14
2023-05-19T09:21:29.643Z,64.79
2023-05-19T09:22:29.771Z,64.89
2023-05-19T09:23:29.665Z,68.36
2023-05-19T09:24:29.689Z,65.30
2023-05-19T09:25:29.574Z,65.14
2023-05-19T09:26:29.584Z,65.27
2023-05-19T09:27:29.572Z,64.80
2023-05-19T09:28:29.594Z,66.08
2023-05-19T09:29:29.592Z,66.20
2023-05-19T09:30:31.426Z,65.15
2023-05-19T09:31:29.560Z,65.64
2023-05-19T09:32:29.736Z,67.07
2023-05-19T09:33:29.566Z,65.31
2023-05-19T09:34:29.552Z,66.19
2023-05-19T09:35:29.518Z,65.49
2023-05-19T09:36:29.502Z,65.01
2023-05-19T09:37:29.482Z,64.23
2023-05-19T09:38:29.506Z,65.75
2023-05-19T09:39:29.490Z,65.18
2023-05-19T09:40:29.474Z,65.14
2023-05-19T09:41:29.456Z,67.34
2023-05-19T09:42:29.445Z,68.22
2023-05-19T09:43:29.450Z,66.90
2023-05-19T09:44:29.671Z,64.63
2023-05-19T09:45:29.469Z,64.47
2023-05-19T09:46:29.534Z,64.86
2023-05-19T09:47:29.460Z,63.31
2023-05-19T09:48:29.407Z,63.72
2023-05-19T09:49:29.468Z,64.01
2023-05-19T09:50:29.389Z,63.77
2023-05-19T09:51:29.373Z,64.81
2023-05-19T09:52:29.477Z,63.72
2023-05-19T09:53:29.348Z,64.51
2023-05-19T09:54:29.439Z,66.81
2023-05-19T09:55:29.351Z,63.84
2023-05-19T09:56:29.353Z,64.22
2023-05-19T09:57:29.324Z,65.13
2023-05-19T09:58:29.326Z,66.40
2023-05-19T09:59:32.117Z,65.73
2023-05-19T10:00:29.384Z,64.69
2023-05-19T10:01:29.341Z,69.35
2023-05-19T10:02:29.318Z,72.79
2023-05-19T10:03:29.501Z,68.74
2023-05-19T10:04:29.352Z,68.79
2023-05-19T10:05:29.251Z,67.87
2023-05-19T10:06:29.288Z,68.28
2023-05-19T10:07:29.281Z,66.81
2023-05-19T10:08:29.253Z,65.43
2023-05-19T10:09:29.377Z,64.93
2023-05-19T10:10:29.250Z,63.81
2023-05-19T10:11:29.262Z,63.88
2023-05-19T10:12:29.222Z,66.66
2023-05-19T10:13:29.245Z,66.81
2023-05-19T10:14:29.248Z,66.24
2023-05-19T10:15:29.188Z,70.65
2023-05-19T10:16:29.200Z,68.94
2023-05-19T10:17:29.201Z,68.57
2023-05-19T10:18:29.169Z,68.43
2023-05-19T10:19:29.456Z,64.24
2023-05-19T10:20:36.188Z,63.72
2023-05-19T10:21:29.167Z,66.47
2023-05-19T10:22:29.181Z,66.97
2023-05-19T10:23:29.184Z,65.51
2023-05-19T10:24:29.433Z,65.80
2023-05-19T10:25:29.115Z,70.26
2023-05-19T10:26:29.149Z,67.28
2023-05-19T10:27:29.096Z,66.09
2023-05-19T10:28:29.087Z,66.06
2023-05-19T10:29:29.144Z,66.34
2023-05-19T10:30:29.089Z,66.68
2023-05-19T10:31:29.123Z,68.34
2023-05-19T10:32:29.135Z,65.75
2023-05-19T10:33:29.068Z,67.73
2023-05-19T10:34:29.053Z,66.01
2023-05-19T10:35:29.055Z,64.41
2023-05-19T10:36:29.045Z,65.98
2023-05-19T10:37:29.025Z,64.17
2023-05-19T10:38:29.066Z,63.61
2023-05-19T10:39:29.036Z,64.46
2023-05-19T10:40:29.867Z,65.88
2023-05-19T10:41:29.016Z,66.80
2023-05-19T10:42:29.009Z,67.03
2023-05-19T10:43:28.987Z,63.08
2023-05-19T10:44:28.980Z,64.05
2023-05-19T10:45:28.969Z,65.38
2023-05-19T10:46:29.008Z,62.80
2023-05-19T10:47:29.004Z,66.94
2023-05-19T10:48:28.925Z,67.33
2023-05-19T10:49:28.936Z,67.03
2023-05-19T10:50:28.929Z,64.61
2023-05-19T10:51:28.910Z,64.36
2023-05-19T10:52:28.900Z,64.72
2023-05-19T10:53:28.899Z,64.20
2023-05-19T10:54:28.887Z,64.59
2023-05-19T10:55:29.103Z,65.18
2023-05-19T10:56:28.900Z,64.27
2023-05-19T10:57:28.868Z,64.40
2023-05-19T10:58:28.851Z,65.99
2023-05-19T10:59:29.648Z,62.71
2023-05-19T11:00:28.885Z,67.04
2023-05-19T11:01:28.920Z,64.28
2023-05-19T11:02:28.874Z,65.08
2023-05-19T11:03:29.010Z,66.50
2023-05-19T11:04:28.852Z,66.11
2023-05-19T11:05:28.792Z,64.08
2023-05-19T11:06:28.800Z,62.38
2023-05-19T11:07:28.782Z,64.11
2023-05-19T11:08:28.788Z,63.70
2023-05-19T11:09:39.626Z,64.02
2023-05-19T11:10:29.801Z,69.08
2023-05-19T11:11:28.750Z,64.52
2023-05-19T11:12:28.842Z,66.79
2023-05-19T11:13:28.750Z,64.85
2023-05-19T11:16:39.268Z,63.80
2023-05-19T11:17:39.262Z,65.01
2023-05-19T11:18:39.210Z,64.71
2023-05-19T11:19:39.189Z,64.63
2023-05-19T11:20:39.315Z,66.47
2023-05-19T11:21:39.199Z,63.44
2023-05-19T11:22:39.249Z,63.76
2023-05-19T11:23:39.280Z,63.91
2023-05-19T11:24:39.160Z,66.65
2023-05-19T11:25:39.184Z,66.10
2023-05-19T11:26:39.148Z,66.28
2023-05-19T11:27:39.178Z,64.54
2023-05-19T11:28:39.116Z,65.43
2023-05-19T11:29:39.111Z,65.92
2023-05-19T11:30:39.120Z,66.38
2023-05-19T11:31:39.153Z,66.06
2023-05-19T11:32:39.236Z,65.22
2023-05-19T11:33:39.148Z,64.25
2023-05-19T11:34:39.062Z,63.72
2023-05-19T11:35:39.353Z,62.91
2023-05-19T11:36:39.080Z,61.80
2023-05-19T11:37:39.049Z,65.36
2023-05-19T11:38:39.028Z,64.79
2023-05-19T11:39:39.106Z,65.02
2023-05-19T11:40:39.041Z,66.32
2023-05-19T11:41:39.008Z,65.25
2023-05-19T11:42:38.993Z,64.94
2023-05-19T11:43:39.007Z,65.57
2023-05-19T11:44:38.997Z,63.57
2023-05-19T11:45:39.068Z,65.06
2023-05-19T11:46:39.299Z,64.88
2023-05-19T11:47:51.662Z,65.51
2023-05-19T11:48:39.975Z,65.68
2023-05-19T11:49:38.942Z,64.48
2023-05-19T11:50:38.999Z,65.80
2023-05-19T11:51:38.950Z,64.89
2023-05-19T11:52:38.969Z,65.96
2023-05-19T11:53:38.983Z,62.67
2023-05-19T11:54:38.939Z,63.13
2023-05-19T11:55:38.943Z,65.02
2023-05-19T11:56:38.895Z,65.01
2023-05-19T11:57:39.633Z,64.58
2023-05-19T11:58:38.889Z,65.82
2023-05-19T11:59:38.891Z,65.10
2023-05-19T12:00:38.867Z,64.53
2023-05-19T12:01:38.882Z,66.89
2023-05-19T12:02:38.973Z,65.69
2023-05-19T12:03:38.993Z,66.77
2023-05-19T12:04:38.934Z,63.97
2023-05-19T12:05:41.755Z,64.66
2023-05-19T12:06:38.915Z,63.63
2023-05-19T12:07:38.797Z,63.89
2023-05-19T12:08:38.801Z,64.94
2023-05-19T12:09:38.818Z,65.04
2023-05-19T12:10:38.778Z,63.97
2023-05-19T12:11:38.770Z,66.39
2023-05-19T12:12:38.919Z,67.93
2023-05-19T12:13:38.778Z,64.61
2023-05-19T12:14:38.828Z,64.89
2023-05-19T12:15:39.020Z,64.14
2023-05-19T12:16:38.792Z,64.87
2023-05-19T12:17:38.738Z,64.82
2023-05-19T12:18:38.737Z,66.51
2023-05-19T12:19:38.691Z,64.46
2023-05-19T12:20:38.687Z,65.77
2023-05-19T12:21:38.674Z,64.26
2023-05-19T12:22:38.665Z,63.29
2023-05-19T12:23:38.638Z,64.21
2023-05-19T12:24:38.695Z,64.62
2023-05-19T12:25:38.658Z,65.16
2023-05-19T12:26:38.681Z,65.46
2023-05-19T12:27:38.613Z,63.11
2023-05-19T12:28:38.615Z,61.92
2023-05-19T12:29:38.599Z,60.92
2023-05-19T12:30:38.839Z,66.09
2023-05-19T12:31:38.628Z,65.64
2023-05-19T12:32:38.626Z,64.43
2023-05-19T12:33:38.566Z,62.23
2023-05-19T12:34:38.567Z,61.05
2023-05-19T12:35:38.557Z,62.45
2023-05-19T12:36:38.560Z,68.28
2023-05-19T12:37:38.517Z,65.36
2023-05-19T12:38:38.524Z,64.90
2023-05-19T12:39:38.556Z,64.76
2023-05-19T12:40:38.517Z,64.61
2023-05-19T12:41:38.526Z,65.44
2023-05-19T12:42:38.501Z,62.35
2023-05-19T12:43:38.514Z,61.80
2023-05-19T12:44:38.480Z,63.75
2023-05-19T12:45:38.907Z,62.45
2023-05-19T12:46:38.461Z,65.59
2023-05-19T12:47:38.558Z,62.32
2023-05-19T12:48:38.444Z,63.01
2023-05-19T12:49:38.438Z,66.66
2023-05-19T12:50:38.441Z,60.91
2023-05-19T12:51:38.423Z,62.99
2023-05-19T12:52:38.418Z,64.88
2023-05-19T12:53:38.441Z,65.76
2023-05-19T12:54:38.431Z,63.41